Time;durP1;ratioP1;P1;durP2;ratioP2;P2;SDS_P1;SDS_P2;PMS_P1;PMS_P2;Temp;Humidity;BMP_temperature;BMP_pressure;BME280_temperature;BME280_humidity;BME280_pressure;Samples;Min_cycle;Max_cycle;Signal;HPM_P1;HPM_P2
2022/12/22 03:26:37;;;;;;;11.63;3.38;;;15.10;92.40;;;;;;5013220;28;20103;-90
2022/12/22 03:29:03;;;;;;;18.60;3.92;;;15.10;92.40;;;;;;4995500;28;20030;-90
2022/12/22 03:31:29;;;;;;;6.82;3.45;;;15.10;92.40;;;;;;4995511;28;20395;-89
2022/12/22 03:33:54;;;;;;;7.65;3.33;;;15.10;92.40;;;;;;4995509;28;20498;-90
2022/12/22 03:36:20;;;;;;;7.68;3.17;;;15.10;92.40;;;;;;4992179;28;20026;-90
2022/12/22 03:38:46;;;;;;;10.88;3.97;;;15.10;92.40;;;;;;5012819;28;20029;-90
2022/12/22 03:46:29;;;;;;;8.57;3.00;;;15.10;92.40;;;;;;4995295;28;20488;-90
2022/12/22 03:46:41;;;;;;;5.60;2.95;;;15.10;92.40;;;;;;5013452;28;20041;-90
2022/12/22 03:49:09;;;;;;;13.07;2.97;;;15.10;92.70;;;;;;4995358;28;20398;-90
2022/12/22 03:51:43;;;;;;;10.65;3.63;;;15.10;92.40;;;;;;4995296;28;20069;-90
2022/12/22 03:54:10;;;;;;;8.15;3.10;;;15.10;92.40;;;;;;4995174;28;20125;-90
2022/12/22 03:56:37;;;;;;;7.47;2.95;;;15.10;92.40;;;;;;4995453;28;20022;-90
2022/12/22 03:59:03;;;;;;;6.82;3.20;;;15.10;92.50;;;;;;5012846;28;20018;-90
2022/12/22 04:01:29;;;;;;;13.88;3.22;;;15.10;92.50;;;;;;4995388;28;20069;-90
2022/12/22 04:03:55;;;;;;;7.93;3.10;;;15.10;92.50;;;;;;5012873;28;20037;-90
2022/12/22 04:06:21;;;;;;;7.75;2.83;;;15.10;92.50;;;;;;4995051;28;20120;-90
2022/12/22 04:08:46;;;;;;;9.18;3.30;;;15.10;92.50;;;;;;4995131;28;20483;-90
2022/12/22 04:13:57;;;;;;;11.70;3.40;;;15.10;92.50;;;;;;5013189;28;20255;-90
2022/12/22 04:16:23;;;;;;;6.28;2.80;;;15.00;92.50;;;;;;4995158;28;20022;-90
2022/12/22 04:18:49;;;;;;;6.95;3.08;;;15.10;92.50;;;;;;4995259;28;20026;-90
2022/12/22 04:21:15;;;;;;;5.72;2.83;;;15.10;92.50;;;;;;5012749;28;20037;-90
2022/12/22 04:23:40;;;;;;;11.63;3.90;;;15.10;92.60;;;;;;4995101;28;20083;-90
2022/12/22 04:26:06;;;;;;;9.20;3.13;;;15.10;92.50;;;;;;4995345;28;20022;-90
2022/12/22 04:28:32;;;;;;;12.73;3.38;;;15.00;92.60;;;;;;4995026;28;20037;-90
2022/12/22 04:30:57;;;;;;;7.88;2.88;;;15.10;92.80;;;;;;4994749;28;20030;-90
2022/12/22 04:33:23;;;;;;;9.48;3.22;;;15.10;92.60;;;;;;4995174;28;20459;-89
2022/12/22 04:35:48;;;;;;;9.40;2.95;;;15.10;92.60;;;;;;5012985;28;20519;-90
2022/12/22 04:38:14;;;;;;;6.90;3.20;;;15.10;92.70;;;;;;4998670;28;20026;-89
2022/12/22 04:40:39;;;;;;;10.45;3.10;;;15.10;93.00;;;;;;4998571;28;20022;-89
2022/12/22 04:43:05;;;;;;;8.52;2.85;;;15.10;92.70;;;;;;4998779;28;20026;-89
2022/12/22 04:45:30;;;;;;;10.15;3.35;;;15.10;92.70;;;;;;4980350;28;20031;-89
2022/12/22 04:47:56;;;;;;;22.00;3.10;;;15.00;92.70;;;;;;4979064;28;20035;-90
2022/12/22 04:50:22;;;;;;;6.00;2.53;;;15.00;92.60;;;;;;4978912;28;20082;-90
2022/12/22 04:52:47;;;;;;;15.55;3.17;;;15.00;92.60;;;;;;4996397;28;20034;-89
2022/12/22 04:55:13;;;;;;;6.85;2.85;;;15.00;92.70;;;;;;4978717;28;20484;-89
2022/12/22 04:57:38;;;;;;;7.30;2.67;;;15.10;92.70;;;;;;4979156;28;20062;-90
2022/12/22 05:00:05;;;;;;;6.45;2.83;;;15.00;92.60;;;;;;4978770;28;20492;-90
2022/12/22 05:02:30;;;;;;;7.88;2.97;;;15.00;92.70;;;;;;4978818;28;20030;-90
2022/12/22 05:04:56;;;;;;;5.97;2.83;;;15.00;92.60;;;;;;4979348;28;20023;-90
2022/12/22 05:07:21;;;;;;;7.57;2.78;;;15.10;93.10;;;;;;4978986;28;20022;-89
2022/12/22 05:09:47;;;;;;;14.13;2.83;;;15.10;92.90;;;;;;4978468;28;20022;-89
2022/12/22 05:14:57;;;;;;;13.10;2.92;;;15.00;92.80;;;;;;5015995;28;20037;-89
2022/12/22 05:17:22;;;;;;;13.80;2.65;;;15.00;92.70;;;;;;4998387;28;20440;-88
2022/12/22 05:19:48;;;;;;;5.90;2.60;;;15.00;92.60;;;;;;5015522;28;20032;-90
2022/12/22 05:22:13;;;;;;;5.35;2.53;;;15.00;92.70;;;;;;4997950;28;20116;-90
2022/12/22 05:24:39;;;;;;;5.35;2.60;;;15.00;92.60;;;;;;4998017;28;20049;-90
2022/12/22 05:27:04;;;;;;;10.90;3.25;;;15.00;92.60;;;;;;4997863;28;20022;-89
2022/12/22 05:29:30;;;;;;;5.80;2.40;;;15.00;92.60;;;;;;4997583;28;20053;-90
2022/12/22 05:31:55;;;;;;;8.50;2.83;;;15.00;92.60;;;;;;4997779;28;20415;-90
2022/12/22 05:34:21;;;;;;;13.77;4.18;;;15.00;92.60;;;;;;4997765;28;20462;-90
2022/12/22 05:36:46;;;;;;;7.53;2.40;;;15.00;92.60;;;;;;4997524;28;20549;-89
2022/12/22 05:39:12;;;;;;;10.82;3.33;;;15.00;92.50;;;;;;4997437;28;20542;-88
2022/12/22 05:41:37;;;;;;;7.70;2.92;;;15.00;92.50;;;;;;4997281;28;20076;-89
2022/12/22 05:44:03;;;;;;;9.02;2.95;;;15.00;92.60;;;;;;4990979;28;20026;-90
2022/12/22 05:46:29;;;;;;;9.65;3.00;;;15.00;92.60;;;;;;4977965;28;20034;-89
2022/12/22 05:48:54;;;;;;;4.07;2.15;;;15.00;92.60;;;;;;4977157;28;20026;-90
2022/12/22 05:51:20;;;;;;;5.65;2.30;;;15.00;92.60;;;;;;4995517;28;20396;-89
2022/12/22 05:53:46;;;;;;;11.75;3.00;;;15.00;92.60;;;;;;4996756;28;20029;-90
2022/12/22 05:56:11;;;;;;;13.85;3.45;;;15.00;92.80;;;;;;4997632;28;20033;-90
2022/12/22 05:58:37;;;;;;;10.63;3.30;;;15.10;92.90;;;;;;4997546;28;20018;-90
2022/12/22 06:01:03;;;;;;;11.05;2.50;;;15.00;92.90;;;;;;5016322;28;20049;-89
2022/12/22 06:03:29;;;;;;;8.30;2.67;;;15.10;92.80;;;;;;5017152;28;20406;-90
2022/12/22 06:05:55;;;;;;;11.20;2.70;;;15.10;92.80;;;;;;5023009;28;20030;-90
2022/12/22 06:08:21;;;;;;;10.80;3.35;;;15.10;93.10;;;;;;5002026;28;20028;-89
2022/12/22 06:10:47;;;;;;;13.57;3.95;;;15.10;92.70;;;;;;4998574;28;20100;-90
2022/12/22 06:13:12;;;;;;;11.68;3.17;;;15.10;92.70;;;;;;5015814;28;20423;-90
2022/12/22 06:15:38;;;;;;;10.27;3.53;;;15.10;92.60;;;;;;4998239;28;20508;-90
2022/12/22 06:18:03;;;;;;;18.23;3.80;;;15.10;92.60;;;;;;5015878;28;20395;-89
2022/12/22 06:20:29;;;;;;;10.43;3.25;;;15.10;92.50;;;;;;4997820;28;20026;-89
2022/12/22 06:22:54;;;;;;;16.95;3.88;;;15.20;92.50;;;;;;4998053;28;20160;-89
2022/12/22 06:25:20;;;;;;;13.52;3.67;;;15.20;92.40;;;;;;4998535;28;20111;-90
2022/12/22 06:27:46;;;;;;;12.13;4.78;;;15.20;92.40;;;;;;5016992;28;20032;-89
2022/12/22 06:30:13;;;;;;;11.35;4.03;;;15.20;92.40;;;;;;4998491;28;20522;-90
2022/12/22 06:32:39;;;;;;;12.02;3.75;;;15.20;92.30;;;;;;5016622;28;20054;-89
2022/12/22 06:35:05;;;;;;;17.50;4.72;;;15.20;92.30;;;;;;4999673;28;20025;-89
2022/12/22 06:37:31;;;;;;;17.15;3.85;;;15.20;92.30;;;;;;5000219;28;20022;-90
2022/12/22 06:39:57;;;;;;;11.57;3.72;;;15.20;92.30;;;;;;5000530;28;20048;-89
2022/12/22 06:45:07;;;;;;;11.55;3.75;;;15.20;92.20;;;;;;5018426;28;20076;-89
2022/12/22 06:47:32;;;;;;;13.57;4.35;;;15.20;92.20;;;;;;5000658;28;20022;-88
2022/12/22 06:49:58;;;;;;;12.90;4.60;;;15.20;92.20;;;;;;4999300;28;20040;-88
2022/12/22 06:52:23;;;;;;;11.85;4.07;;;15.20;92.10;;;;;;4999406;28;20022;-89
2022/12/22 06:54:49;;;;;;;12.05;3.78;;;15.20;92.10;;;;;;4998931;28;20161;-89
2022/12/22 06:57:14;;;;;;;12.95;4.15;;;15.30;92.10;;;;;;4999247;28;20029;-89
2022/12/22 06:59:40;;;;;;;19.40;3.33;;;15.30;92.00;;;;;;4998633;28;20073;-89
2022/12/22 07:02:06;;;;;;;11.30;3.50;;;15.30;92.00;;;;;;4997097;28;20025;-89
2022/12/22 07:04:31;;;;;;;19.00;4.60;;;15.30;92.00;;;;;;5015561;28;20372;-88
2022/12/22 07:06:57;;;;;;;20.30;4.68;;;15.30;92.00;;;;;;4998010;28;20063;-89
2022/12/22 07:09:23;;;;;;;8.98;2.90;;;15.30;91.90;;;;;;4998121;28;20498;-89
2022/12/22 07:11:48;;;;;;;15.10;3.90;;;15.30;91.90;;;;;;4997628;28;20475;-88
2022/12/22 07:14:14;;;;;;;14.35;3.95;;;15.40;91.90;;;;;;4997171;28;20025;-89
2022/12/22 07:16:39;;;;;;;12.63;3.03;;;15.40;91.90;;;;;;4997134;28;20368;-90
2022/12/22 07:19:05;;;;;;;8.80;3.63;;;15.40;91.90;;;;;;4997691;28;20109;-90
2022/12/22 07:21:30;;;;;;;10.77;3.70;;;15.40;91.80;;;;;;4997384;28;20026;-90
2022/12/22 07:23:56;;;;;;;10.15;3.95;;;15.40;91.80;;;;;;5003997;28;20053;-90
2022/12/22 07:26:21;;;;;;;8.13;3.40;;;15.40;91.80;;;;;;4994950;28;20028;-92
2022/12/22 07:28:47;;;;;;;15.05;3.58;;;15.50;91.80;;;;;;4999174;28;20098;-91
2022/12/22 07:31:17;;;;;;;11.48;2.28;;;15.50;91.80;;;;;;4998489;28;20049;-90
2022/12/22 07:33:43;;;;;;;2.97;1.52;;;15.10;85.20;;;;;;5017031;28;20033;-91
2022/12/22 07:36:15;;;;;;;3.63;1.63;;;14.40;83.70;;;;;;4998418;28;20025;-90
2022/12/22 07:38:43;;;;;;;1.13;0.93;;;13.80;84.00;;;;;;5000687;28;20022;-87
2022/12/22 07:43:56;;;;;;;4.20;1.15;;;14.30;85.20;;;;;;5017026;28;20037;-90
2022/12/22 07:46:24;;;;;;;4.47;1.83;;;14.70;84.60;;;;;;4998997;28;20026;-91
2022/12/22 07:51:35;;;;;;;2.00;1.33;;;15.10;84.90;;;;;;5014313;28;20403;-91
2022/12/22 07:54:04;;;;;;;6.60;1.30;;;15.20;85.00;;;;;;4997001;28;20034;-91
2022/12/22 07:56:29;;;;;;;6.68;1.50;;;15.20;85.30;;;;;;4996054;28;20018;-90
2022/12/22 07:58:55;;;;;;;8.30;1.83;;;15.30;85.70;;;;;;4996042;28;20049;-91
2022/12/22 08:01:21;;;;;;;5.50;1.58;;;15.40;86.00;;;;;;4995997;28;20494;-91
2022/12/22 08:03:46;;;;;;;7.10;1.10;;;15.40;86.30;;;;;;4995861;28;20049;-91
2022/12/22 08:06:12;;;;;;;5.68;1.45;;;15.40;86.40;;;;;;4996137;28;20487;-91
2022/12/22 08:08:37;;;;;;;3.30;1.50;;;15.50;86.60;;;;;;4995673;28;20517;-90
2022/12/22 08:11:03;;;;;;;4.25;1.10;;;15.50;86.90;;;;;;4996035;28;20037;-91
2022/12/22 08:13:29;;;;;;;3.05;1.08;;;15.50;87.10;;;;;;4998999;28;20073;-91
2022/12/22 08:15:54;;;;;;;1.30;1.05;;;15.60;87.40;;;;;;4999128;28;20061;-90
2022/12/22 08:18:20;;;;;;;3.30;1.20;;;15.60;87.50;;;;;;4999128;28;20403;-92
2022/12/22 08:20:52;;;;;;;3.70;1.35;;;15.60;87.50;;;;;;4998866;28;20499;-91
2022/12/22 08:23:17;;;;;;;10.35;1.15;;;15.70;87.80;;;;;;4999284;28;20058;-90
2022/12/22 08:25:44;;;;;;;5.13;1.27;;;15.70;88.00;;;;;;4999236;28;20029;-90
2022/12/22 08:28:11;;;;;;;3.53;1.13;;;15.70;88.90;;;;;;4998635;28;20673;-92
2022/12/22 08:30:37;;;;;;;2.67;0.93;;;15.80;88.50;;;;;;5004937;28;20033;-90
2022/12/22 08:33:03;;;;;;;6.03;1.00;;;15.80;88.50;;;;;;4999811;28;20030;-90
2022/12/22 08:35:28;;;;;;;2.40;1.10;;;15.80;88.60;;;;;;4999653;28;20029;-91
2022/12/22 08:37:54;;;;;;;5.13;1.30;;;15.80;88.60;;;;;;4999072;28;20021;-91
2022/12/22 08:40:28;;;;;;;3.42;1.38;;;15.80;88.70;;;;;;4996756;28;20021;-90
2022/12/22 08:42:58;;;;;;;6.13;1.10;;;15.80;88.70;;;;;;5003368;28;20095;-89
2022/12/22 08:45:24;;;;;;;6.75;1.23;;;15.90;88.80;;;;;;4998986;28;20053;-89
2022/12/22 08:47:49;;;;;;;2.88;1.33;;;16.10;88.00;;;;;;4992271;28;20026;-87
2022/12/22 08:50:15;;;;;;;1.73;1.02;;;16.40;87.90;;;;;;4993460;28;20022;-88
2022/12/22 08:52:40;;;;;;;5.65;1.17;;;16.40;86.90;;;;;;4993040;28;20014;-87
2022/12/22 08:55:07;;;;;;;5.88;1.30;;;16.50;87.10;;;;;;4992560;28;20528;-88
2022/12/22 08:57:32;;;;;;;1.90;1.15;;;16.80;85.60;;;;;;4997263;28;20502;-88
2022/12/22 08:59:58;;;;;;;6.00;1.05;;;16.60;86.10;;;;;;4998097;28;20026;-89
2022/12/22 09:02:23;;;;;;;2.25;1.10;;;16.50;86.70;;;;;;5015823;28;20014;-88
2022/12/22 09:04:49;;;;;;;2.55;1.25;;;16.50;86.90;;;;;;4993075;28;20032;-89
2022/12/22 09:07:15;;;;;;;9.15;1.30;;;16.50;87.10;;;;;;4997967;28;20042;-88
2022/12/22 09:09:40;;;;;;;2.25;1.50;;;16.40;87.40;;;;;;5009780;28;20050;-91
2022/12/22 09:12:06;;;;;;;10.07;2.28;;;16.40;87.90;;;;;;4996858;28;20030;-90
2022/12/22 09:14:32;;;;;;;3.78;1.20;;;16.40;88.20;;;;;;4997627;28;20025;-91
2022/12/22 09:16:58;;;;;;;3.05;1.02;;;16.40;88.40;;;;;;4995794;28;20030;-91
2022/12/22 09:19:24;;;;;;;14.93;1.45;;;16.40;88.50;;;;;;4997079;28;20018;-91
2022/12/22 09:21:49;;;;;;;5.03;1.58;;;16.40;88.70;;;;;;4997407;28;20112;-92
2022/12/22 09:24:15;;;;;;;2.47;1.70;;;16.40;88.80;;;;;;4996334;28;20030;-92
2022/12/22 09:26:40;;;;;;;3.83;1.30;;;16.40;89.00;;;;;;4996562;28;20022;-92
2022/12/22 09:29:06;;;;;;;9.35;1.23;;;16.40;89.00;;;;;;4992961;28;20026;-89
2022/12/22 09:31:32;;;;;;;5.10;1.00;;;16.40;89.30;;;;;;4999165;28;20034;-91
2022/12/22 09:33:58;;;;;;;3.90;1.17;;;16.40;89.20;;;;;;4999461;28;20397;-91
2022/12/22 09:36:29;;;;;;;7.28;1.50;;;16.30;89.30;;;;;;4999462;28;20057;-91
2022/12/22 09:38:54;;;;;;;6.88;1.27;;;16.30;89.50;;;;;;5009085;28;20010;-89
2022/12/22 09:41:30;;;;;;;5.05;1.58;;;16.30;89.60;;;;;;5017596;28;20037;-91
2022/12/22 09:43:56;;;;;;;6.03;1.52;;;16.20;89.70;;;;;;4998214;28;20033;-89
2022/12/22 09:46:26;;;;;;;9.77;2.00;;;16.20;89.70;;;;;;4996570;28;20049;-90
2022/12/22 09:48:52;;;;;;;2.27;1.30;;;16.20;89.70;;;;;;5014767;28;20491;-88
2022/12/22 09:51:19;;;;;;;5.30;1.50;;;16.20;89.70;;;;;;4994007;28;20069;-89
2022/12/22 09:53:49;;;;;;;7.32;1.10;;;16.20;90.30;;;;;;4994310;28;20026;-90
2022/12/22 09:56:16;;;;;;;4.75;1.55;;;16.20;89.90;;;;;;4998527;28;20406;-90
2022/12/22 09:58:42;;;;;;;4.22;1.42;;;16.20;89.90;;;;;;4998726;28;20030;-89
2022/12/22 10:01:37;;;;;;;2.97;1.45;;;16.20;89.80;;;;;;4999296;28;20483;-89
2022/12/22 10:04:30;;;;;;;2.55;1.13;;;16.20;89.70;;;;;;4998810;28;20029;-91
2022/12/22 10:07:20;;;;;;;2.08;1.15;;;16.20;89.70;;;;;;4998764;28;20083;-89
2022/12/22 10:09:45;;;;;;;2.17;1.35;;;16.10;89.80;;;;;;5001332;28;20482;-91
2022/12/22 10:12:17;;;;;;;2.47;1.08;;;16.10;89.90;;;;;;5004617;28;20030;-91
2022/12/22 10:14:47;;;;;;;7.88;1.40;;;16.00;90.00;;;;;;4997879;28;20014;-90
2022/12/22 10:17:18;;;;;;;6.63;1.20;;;16.10;90.10;;;;;;4999833;28;20045;-91
2022/12/22 10:19:45;;;;;;;5.55;1.27;;;16.00;90.00;;;;;;5001181;28;20018;-90
2022/12/22 10:22:20;;;;;;;2.80;1.05;;;16.00;90.00;;;;;;5000426;28;20423;-91
2022/12/22 10:24:46;;;;;;;4.45;1.60;;;16.00;90.10;;;;;;4999823;28;20026;-91
2022/12/22 10:27:12;;;;;;;2.50;0.90;;;16.00;90.00;;;;;;4993333;28;20026;-92
2022/12/22 10:29:38;;;;;;;3.58;1.10;;;16.00;90.00;;;;;;5003142;28;20029;-91
2022/12/22 10:32:12;;;;;;;2.45;1.30;;;16.00;90.10;;;;;;4998236;28;20026;-89
2022/12/22 10:34:57;;;;;;;2.45;1.30;;;16.00;90.00;;;;;;4997127;28;20032;-90
2022/12/22 10:37:30;;;;;;;4.53;1.30;;;16.00;90.00;;;;;;5000605;28;20018;-91
2022/12/22 10:39:56;;;;;;;1.85;1.27;;;16.00;90.00;;;;;;4995123;28;20085;-90
2022/12/22 10:42:22;;;;;;;4.43;0.93;;;16.00;90.00;;;;;;4988017;28;20431;-91
2022/12/22 10:44:49;;;;;;;1.65;1.27;;;16.00;90.00;;;;;;4989272;28;20080;-91
2022/12/22 10:47:22;;;;;;;2.67;1.30;;;16.00;90.00;;;;;;4994291;28;20025;-91
2022/12/22 10:49:56;;;;;;;3.15;1.23;;;16.00;89.90;;;;;;5015258;28;20427;-92
2022/12/22 10:52:30;;;;;;;4.90;1.17;;;16.00;89.80;;;;;;4996747;28;20060;-92
2022/12/22 10:55:14;;;;;;;2.40;1.45;;;16.00;89.80;;;;;;4999150;28;20038;-92
2022/12/22 10:57:40;;;;;;;4.57;1.50;;;16.00;89.80;;;;;;4996951;28;20026;-91
2022/12/22 11:00:26;;;;;;;3.72;1.40;;;16.00;89.70;;;;;;4998628;28;20025;-92
2022/12/22 11:02:55;;;;;;;5.55;1.27;;;16.10;89.70;;;;;;4998042;28;20029;-91
2022/12/22 11:05:21;;;;;;;4.05;1.25;;;16.00;89.60;;;;;;4999250;28;20026;-90
2022/12/22 11:07:47;;;;;;;3.47;1.10;;;16.00;89.60;;;;;;4999113;28;20022;-91
2022/12/22 11:10:30;;;;;;;7.18;1.45;;;16.00;89.60;;;;;;4997680;28;20022;-91
2022/12/22 11:13:16;;;;;;;1.42;0.95;;;16.00;89.70;;;;;;5006507;28;20480;-91
2022/12/22 11:15:46;;;;;;;1.73;1.30;;;16.00;89.60;;;;;;4982028;28;20101;-91
2022/12/22 11:18:17;;;;;;;4.63;1.40;;;16.00;89.60;;;;;;4992873;28;20066;-90
2022/12/22 11:21:04;;;;;;;8.82;1.35;;;16.00;89.80;;;;;;5001430;28;20058;-92
2022/12/22 11:23:50;;;;;;;5.18;1.55;;;16.00;89.70;;;;;;4999065;28;20030;-91
2022/12/22 11:26:43;;;;;;;4.88;1.40;;;16.00;89.80;;;;;;4999149;28;20063;-91
2022/12/22 11:29:47;;;;;;;3.90;1.75;;;16.00;89.80;;;;;;5016285;28;20038;-91
2022/12/22 11:32:21;;;;;;;6.38;1.70;;;15.90;89.80;;;;;;4996440;28;20526;-91
2022/12/22 11:35:15;;;;;;;4.55;2.17;;;16.00;89.90;;;;;;4997407;28;20030;-89
2022/12/22 11:38:00;;;;;;;4.03;1.70;;;16.00;90.10;;;;;;4990879;28;20029;-91
2022/12/22 11:40:34;;;;;;;6.90;2.28;;;16.00;90.00;;;;;;4994130;28;20069;-89
2022/12/22 11:43:28;;;;;;;6.07;2.63;;;16.00;90.00;;;;;;4997967;28;20061;-89
2022/12/22 11:45:58;;;;;;;8.65;2.28;;;16.00;90.00;;;;;;4999382;28;20049;-91
2022/12/22 11:49:02;;;;;;;9.32;2.90;;;16.00;90.10;;;;;;4988913;28;20045;-91
2022/12/22 11:52:01;;;;;;;9.20;3.60;;;15.90;90.10;;;;;;4998492;28;20105;-91
2022/12/22 11:54:34;;;;;;;11.45;3.60;;;15.90;90.10;;;;;;4996559;28;20105;-91
2022/12/22 11:57:18;;;;;;;10.15;3.70;;;16.00;90.10;;;;;;4997391;28;20025;-91
2022/12/22 11:59:52;;;;;;;14.15;3.88;;;16.00;90.10;;;;;;4997093;28;20049;-91
2022/12/22 12:02:53;;;;;;;12.57;3.95;;;16.00;90.40;;;;;;4999999;28;20068;-92
2022/12/22 12:05:34;;;;;;;13.52;4.00;;;16.00;90.10;;;;;;4974848;28;20041;-90
2022/12/22 12:08:28;;;;;;;11.25;3.58;;;16.00;90.10;;;;;;5016392;28;20041;-92
2022/12/22 12:11:31;;;;;;;12.85;5.10;;;16.00;90.10;;;;;;4990781;28;20030;-91
2022/12/22 12:14:03;;;;;;;16.42;4.43;;;16.00;90.20;;;;;;5002003;28;20022;-91
2022/12/22 12:16:38;;;;;;;14.85;3.90;;;16.00;90.20;;;;;;5002238;28;20018;-90
2022/12/22 12:19:43;;;;;;;9.80;4.43;;;15.90;90.20;;;;;;4997555;28;20093;-90
2022/12/22 12:22:35;;;;;;;18.33;4.93;;;15.90;90.20;;;;;;4997418;28;20048;-91
2022/12/22 12:25:15;;;;;;;9.20;4.60;;;15.90;90.30;;;;;;5014659;28;20033;-90
2022/12/22 12:28:00;;;;;;;;;;;16.00;90.60;;;;;;4986839;28;20045;-91
2022/12/22 12:30:35;;;;;;;12.75;4.00;;;16.00;90.30;;;;;;4996659;28;19917;-91
2022/12/22 12:33:19;;;;;;;12.90;3.92;;;15.90;90.30;;;;;;5004623;28;20048;-90
2022/12/22 12:35:55;;;;;;;13.30;5.28;;;16.00;90.30;;;;;;5000710;28;20072;-90
2022/12/22 12:38:50;;;;;;;16.17;5.25;;;16.00;90.30;;;;;;5011744;28;20037;-91
2022/12/22 12:41:38;;;;;;;14.80;4.70;;;16.00;90.30;;;;;;4988787;28;20046;-91
2022/12/22 12:44:05;;;;;;;14.40;5.40;;;16.00;90.30;;;;;;4995046;28;20026;-91
2022/12/22 12:46:50;;;;;;;16.48;5.38;;;16.00;90.20;;;;;;5001359;28;20160;-91
2022/12/22 12:49:34;;;;;;;15.10;4.50;;;16.00;90.20;;;;;;5003959;28;20113;-91
2022/12/22 12:52:07;;;;;;;14.52;5.07;;;16.00;90.30;;;;;;4998641;28;20034;-91
2022/12/22 12:54:46;;;;;;;14.90;4.72;;;16.00;90.30;;;;;;4999476;28;20030;-92
2022/12/22 12:57:36;;;;;;;10.93;4.55;;;16.00;90.20;;;;;;4999101;28;20018;-92
2022/12/22 13:00:02;;;;;;;15.18;4.78;;;16.00;90.20;;;;;;4996844;28;20030;-90
2022/12/22 13:02:33;;;;;;;13.02;4.75;;;16.00;90.20;;;;;;5003184;28;20061;-91
2022/12/22 13:04:59;;;;;;;12.95;5.20;;;16.10;90.20;;;;;;5002379;28;20742;-91
2022/12/22 13:08:03;;;;;;;18.77;5.30;;;16.00;90.20;;;;;;5001808;28;20057;-91
2022/12/22 13:10:29;;;;;;;13.52;4.40;;;16.10;90.20;;;;;;4999412;28;20030;-90
2022/12/22 13:12:56;;;;;;;15.52;4.43;;;16.10;90.20;;;;;;5013889;28;20123;-90
2022/12/22 13:15:26;;;;;;;15.90;4.70;;;16.00;90.30;;;;;;5000810;28;20021;-91
2022/12/22 13:17:52;;;;;;;14.60;5.20;;;16.10;90.20;;;;;;4997719;28;20109;-90
2022/12/22 13:20:35;;;;;;;13.82;4.88;;;16.10;90.20;;;;;;5000025;28;20056;-91
2022/12/22 13:23:09;;;;;;;11.32;4.53;;;16.10;90.20;;;;;;4999308;28;20026;-90
2022/12/22 13:25:44;;;;;;;15.65;4.90;;;16.10;90.20;;;;;;4996791;28;20022;-90
2022/12/22 13:28:20;;;;;;;19.23;5.40;;;16.10;90.20;;;;;;5000128;28;20612;-89
2022/12/22 13:31:21;;;;;;;13.93;5.13;;;16.10;90.20;;;;;;5004504;28;20510;-90
2022/12/22 13:33:52;;;;;;;13.98;4.90;;;16.10;90.20;;;;;;5001528;28;20018;-91
2022/12/22 13:36:24;;;;;;;17.00;4.93;;;16.10;90.20;;;;;;5000587;28;20029;-89
2022/12/22 13:39:20;;;;;;;14.95;5.57;;;16.10;90.40;;;;;;4993987;28;20028;-88
2022/12/22 13:41:48;;;;;;;16.50;4.93;;;16.10;90.20;;;;;;4932201;29;20386;-89
2022/12/22 13:44:28;;;;;;;11.60;5.07;;;16.10;90.20;;;;;;4918764;29;20038;-90
2022/12/22 13:46:55;;;;;;;13.63;5.10;;;16.10;90.20;;;;;;4922221;29;20028;-90
2022/12/22 13:49:24;;;;;;;12.05;5.32;;;16.10;90.30;;;;;;4932906;29;20062;-92
2022/12/22 13:51:50;;;;;;;15.02;5.45;;;16.10;90.30;;;;;;4922226;29;20043;-92
2022/12/22 13:54:25;;;;;;;16.83;5.28;;;16.10;90.30;;;;;;4934372;29;20084;-90
2022/12/22 13:56:53;;;;;;;10.65;4.65;;;16.10;90.30;;;;;;4930538;29;20032;-90
2022/12/22 13:59:39;;;;;;;12.95;4.80;;;16.10;90.30;;;;;;4929569;29;20043;-90
2022/12/22 14:02:07;;;;;;;16.35;4.70;;;16.10;90.30;;;;;;4937411;29;20031;-91
2022/12/22 14:04:34;;;;;;;13.18;5.40;;;16.20;90.30;;;;;;4921736;29;20131;-89
2022/12/22 14:07:18;;;;;;;12.15;5.43;;;16.20;90.30;;;;;;4938075;29;20527;-90
2022/12/22 14:09:44;;;;;;;12.98;4.85;;;16.10;90.30;;;;;;4921251;29;20083;-89
2022/12/22 14:12:17;;;;;;;17.17;5.05;;;16.10;90.30;;;;;;4922159;29;20040;-91
2022/12/22 14:14:45;;;;;;;11.85;4.60;;;16.10;90.30;;;;;;4921651;29;20410;-90
2022/12/22 14:17:26;;;;;;;13.75;6.70;;;16.10;90.40;;;;;;4927208;28;20122;-90
2022/12/22 14:19:55;;;;;;;16.05;5.65;;;16.10;90.40;;;;;;4998198;28;20368;-89
2022/12/22 14:22:25;;;;;;;13.90;5.15;;;16.10;90.40;;;;;;4995347;28;20030;-90
2022/12/22 14:24:58;;;;;;;17.23;5.43;;;16.10;90.50;;;;;;4979544;28;20074;-90
2022/12/22 14:27:46;;;;;;;10.75;4.70;;;16.10;90.50;;;;;;4979954;28;20041;-88
2022/12/22 14:30:16;;;;;;;17.48;5.40;;;16.00;90.40;;;;;;4979967;28;20109;-89
2022/12/22 14:32:43;;;;;;;;;;;16.00;90.50;;;;;;4996745;28;20076;-90
2022/12/22 14:35:25;;;;;;;13.70;5.25;;;16.00;90.50;;;;;;4999357;28;19909;-90
2022/12/22 14:38:15;;;;;;;15.85;5.95;;;16.00;90.60;;;;;;4999163;28;20028;-89
2022/12/22 14:40:42;;;;;;;14.20;5.55;;;16.00;90.60;;;;;;5016048;28;20058;-89
2022/12/22 14:43:17;;;;;;;12.95;5.47;;;16.10;90.70;;;;;;4998796;28;20025;-89
2022/12/22 14:45:48;;;;;;;12.32;4.25;;;16.10;90.70;;;;;;4998521;28;20041;-86
2022/12/22 14:48:33;;;;;;;14.10;4.97;;;16.10;90.70;;;;;;5001035;28;20045;-89
2022/12/22 14:51:00;;;;;;;10.90;4.32;;;16.10;90.70;;;;;;5003831;28;20029;-90
2022/12/22 14:53:36;;;;;;;151.07;34.47;;;16.10;90.70;;;;;;4997349;28;20060;-91
2022/12/22 14:56:02;;;;;;;64.82;17.95;;;16.20;90.70;;;;;;4996180;28;20069;-89
2022/12/22 14:58:33;;;;;;;36.45;9.75;;;16.30;90.70;;;;;;4996007;28;20050;-89
2022/12/22 15:01:21;;;;;;;25.88;7.93;;;16.30;90.80;;;;;;4995938;28;20064;-90
2022/12/22 15:04:15;;;;;;;24.50;7.28;;;16.30;90.50;;;;;;4995845;28;20474;-87
2022/12/22 15:06:44;;;;;;;34.33;6.72;;;16.30;90.80;;;;;;4996132;28;20110;-87
2022/12/22 15:09:13;;;;;;;22.55;6.97;;;16.30;90.90;;;;;;4988983;28;20029;-89
2022/12/22 15:11:43;;;;;;;27.75;7.00;;;16.40;90.80;;;;;;5012822;28;20033;-88
2022/12/22 15:14:34;;;;;;;31.75;5.95;;;16.30;90.70;;;;;;4993980;28;20066;-87
2022/12/22 15:17:01;;;;;;;26.85;6.35;;;16.40;90.70;;;;;;5006109;28;20056;-87
2022/12/22 15:19:33;;;;;;;17.88;6.05;;;16.40;90.60;;;;;;4995013;28;20026;-89
2022/12/22 15:21:59;;;;;;;18.67;5.78;;;16.50;90.60;;;;;;5012677;28;20506;-89
2022/12/22 15:24:25;;;;;;;19.75;6.50;;;16.50;90.50;;;;;;4994963;28;20025;-89
2022/12/22 15:26:50;;;;;;;20.02;5.50;;;16.50;90.40;;;;;;4995048;28;20025;-89
2022/12/22 15:29:16;;;;;;;25.30;6.47;;;16.50;90.40;;;;;;4994642;28;20113;-88
2022/12/22 15:31:42;;;;;;;20.15;5.55;;;16.40;90.30;;;;;;4994926;28;20033;-89
2022/12/22 15:34:23;;;;;;;22.60;5.80;;;16.40;90.30;;;;;;4994732;28;20022;-90
2022/12/22 15:36:48;;;;;;;19.15;5.72;;;16.40;90.30;;;;;;4994858;28;20113;-88
2022/12/22 15:39:16;;;;;;;28.70;6.40;;;16.50;90.50;;;;;;5002495;28;20049;-91
2022/12/22 15:41:43;;;;;;;17.27;5.60;;;16.60;90.60;;;;;;4994602;28;20026;-92
2022/12/22 15:44:09;;;;;;;20.25;5.13;;;16.70;90.50;;;;;;4995829;28;20037;-92
2022/12/22 15:46:35;;;;;;;17.25;4.55;;;16.70;90.40;;;;;;4995516;28;20038;-93
2022/12/22 15:49:01;;;;;;;16.27;4.88;;;16.70;90.40;;;;;;4992792;28;20030;-92
2022/12/22 15:51:29;;;;;;;14.98;4.78;;;16.80;90.40;;;;;;4989168;28;20044;-92
2022/12/22 15:53:56;;;;;;;14.25;5.15;;;16.80;90.40;;;;;;4993491;28;20049;-92
2022/12/22 15:56:24;;;;;;;12.13;4.50;;;16.70;90.30;;;;;;4996532;28;20124;-92
2022/12/22 15:58:50;;;;;;;14.70;4.90;;;16.80;90.40;;;;;;4994158;28;20030;-93
2022/12/22 16:01:16;;;;;;;16.17;4.45;;;16.90;90.30;;;;;;5008084;28;20522;-93
2022/12/22 16:03:41;;;;;;;19.13;4.95;;;16.90;90.30;;;;;;4995785;28;20029;-86
2022/12/22 16:13:24;;;;;;;12.68;4.45;;;17.70;86.10;;;;;;5119055;27;20816;-85
2022/12/22 16:15:50;;;;;;;13.75;4.18;;;17.70;86.80;;;;;;5117309;28;20027;-83
2022/12/22 16:18:16;;;;;;;15.63;4.65;;;17.60;87.40;;;;;;5116957;28;20520;-82
2022/12/22 16:20:43;;;;;;;9.50;3.85;;;17.50;87.40;;;;;;5106974;28;20015;-82
2022/12/22 16:23:35;;;;;;;15.98;4.28;;;17.50;87.90;;;;;;5104636;28;20032;-85
2022/12/22 16:26:03;;;;;;;10.57;4.13;;;17.50;88.30;;;;;;5106484;28;20038;-86
2022/12/22 16:28:29;;;;;;;21.92;4.43;;;17.50;88.00;;;;;;5094510;28;20082;-85
2022/12/22 16:30:55;;;;;;;19.17;4.18;;;17.40;88.00;;;;;;5095187;28;20032;-86
2022/12/22 16:33:20;;;;;;;20.42;3.45;;;17.40;88.30;;;;;;5106314;28;20496;-86
2022/12/22 16:35:46;;;;;;;21.30;3.80;;;17.30;88.50;;;;;;5099050;28;20020;-83
2022/12/22 16:38:12;;;;;;;7.90;3.63;;;17.20;88.60;;;;;;5100851;28;20073;-84
2022/12/22 16:40:43;;;;;;;10.85;3.67;;;17.20;88.80;;;;;;5097013;28;20066;-83
2022/12/22 16:43:23;;;;;;;10.23;4.10;;;17.10;89.00;;;;;;5103610;28;20031;-85
2022/12/22 16:45:49;;;;;;;11.93;3.80;;;17.00;89.00;;;;;;5099318;28;20508;-87
2022/12/22 16:48:20;;;;;;;14.25;3.67;;;17.10;89.20;;;;;;5112065;28;20036;-85
2022/12/22 16:50:46;;;;;;;9.73;3.67;;;17.00;89.30;;;;;;5107595;27;20044;-86